Terminal Aerodrome Forecast
Issued by NWS Brownsville, TX

Home | Current Version | Previous Version | Text Only | Print | Product List | Glossary On
Versions: 1 2 3 4 5 6 7 8 9 10 11 12 13 14 15 16 17 18
013
FTUS44 KBRO 170520
TAFHRL
TAF
KHRL 170520Z 1706/1806 27003KT 1SM BR VV003
      TEMPO 1707/1711 1/2SM FG VV002
     FM171100 32006KT 2SM BR OVC002
     FM171600 35004KT 5SM BR OVC007
     FM172000 08005KT P6SM OVC012
     FM180300 08006KT 3SM BR OVC004=

USA.gov is the U.S. government's official web portal to all federal, state and local government web resources and services.